Doce Orion — PPWN — position and weather

sailwx.info

Track history (hours):
 
Tides and Currents Weather Stations Pressure Air Temp Water Temp Dewpoint Dewpoint Depression Visibility Wind Speed Wind Dir Waves Ship Positions

Doce Orion

Last reported at 2014-Sep-15 09:11 UTC. Time now 2014-Oct-25 13:21 UTC.
Position N 31°22' E 032°20'.
Warning: this ship's position is 40 days out of date.

Type: Cargo ship. MMSI: 710034000.

Date/timePositionNaut miles runAvg speedWind from/ knotsBaromVisibWave heightAir tempDewpointWater temp
2014-Sep-15 09:11N 31°22' E 032°20'0 0.0
2014-Sep-15 08:30N 31°22' E 032°20'66 5.8
2014-Sep-14 21:05N 31°59' E 031°16'  
2014-Sep-12 11:32N 34°29' E 021°31'297 7.6
2014-Sep-10 20:32N 35°45' E 015°40'22 9.2
2014-Sep-10 18:12N 35°51' E 015°15'6 9.9
2014-Sep-10 17:33N 35°53' E 015°07'9 8.8
2014-Sep-10 16:33N 35°54' E 014°56'7 6.7
2014-Sep-10 15:33N 35°54' E 014°48'1 0.9
2014-Sep-10 14:32N 35°54' E 014°47'0 0.0
2014-Sep-10 13:32N 35°54' E 014°47'0 0.0
2014-Sep-10 12:29N 35°54' E 014°47'0 0.1
2014-Sep-10 11:31N 35°54' E 014°47'0 0.2
2014-Sep-10 10:32N 35°54' E 014°47'0 0.1
2014-Sep-10 09:32N 35°53' E 014°47'0 0.0
2014-Sep-10 07:17N 35°53' E 014°47'0 0.0
2014-Sep-10 06:32N 35°53' E 014°47'0 0.0
2014-Sep-10 04:05N 35°53' E 014°47'0 0.0
2014-Sep-10 03:05N 35°53' E 014°47'0 0.0
2014-Sep-10 02:23N 35°53' E 014°47'0 0.0
2014-Sep-10 01:23N 35°53' E 014°47'0 0.0
2014-Sep-10 00:29N 35°53' E 014°47'0 0.0
2014-Sep-09 23:29N 35°53' E 014°47'0 0.0
2014-Sep-09 22:17N 35°53' E 014°47'0 0.0
2014-Sep-09 21:20N 35°53' E 014°47'0 0.0
2014-Sep-09 20:33N 35°53' E 014°47'0 0.0
2014-Sep-09 19:33N 35°53' E 014°47'0 0.0
2014-Sep-09 18:33N 35°53' E 014°47'0 0.0
2014-Sep-09 17:33N 35°53' E 014°47'0 0.1
2014-Sep-09 16:24N 35°53' E 014°47'0 0.0
2014-Sep-09 15:33N 35°53' E 014°47'0 0.0
2014-Sep-09 14:33N 35°53' E 014°47'0 0.0
2014-Sep-09 13:24N 35°53' E 014°47'0 0.0
2014-Sep-09 12:30N 35°53' E 014°47'0 0.0
2014-Sep-09 11:33N 35°53' E 014°47'0 0.0
2014-Sep-09 10:14N 35°53' E 014°47'0 0.0
2014-Sep-09 09:31N 35°53' E 014°47'0 0.0
2014-Sep-09 06:15N 35°53' E 014°47'0 0.0
2014-Sep-09 05:10N 35°54' E 014°47'0 0.0
2014-Sep-09 04:24N 35°54' E 014°47'0 0.0
2014-Sep-09 03:33N 35°54' E 014°47'0 0.0
2014-Sep-09 02:29N 35°54' E 014°47'0 0.0
2014-Sep-09 01:33N 35°54' E 014°47'0 0.0
2014-Sep-09 00:29N 35°54' E 014°47'0 0.1
2014-Sep-08 23:33N 35°53' E 014°47'0 0.0
2014-Sep-08 22:24N 35°53' E 014°47'0 0.0
2014-Sep-08 21:30N 35°53' E 014°47'0 0.0
2014-Sep-08 19:32N 35°53' E 014°47'0 0.0
2014-Sep-08 18:22N 35°53' E 014°47'0 0.0
2014-Sep-08 17:33N 35°53' E 014°47'1 0.6
2014-Sep-08 16:33N 35°53' E 014°47'3 3.1
2014-Sep-08 15:33N 35°56' E 014°45'6 6.1
2014-Sep-08 14:33N 35°58' E 014°38'9 9.3
2014-Sep-08 13:33N 36°04' E 014°29'9 9.4
2014-Sep-08 12:33N 36°09' E 014°20'11 9.4
2014-Sep-08 11:26N 36°15' E 014°09'8 9.3
2014-Sep-08 10:33N 36°19' E 014°00'12 9.9
2014-Sep-08 09:18N 36°26' E 013°47'12 9.9
2014-Sep-08 08:08N 36°32' E 013°35'6 9.6
2014-Sep-08 07:33N 36°35' E 013°29'9 9.3
2014-Sep-08 06:33N 36°40' E 013°19'10 9.2
2014-Sep-08 05:26N 36°45' E 013°08'8 9.1
2014-Sep-08 04:33N 36°50' E 012°60'188 8.8
2014-Sep-07 07:04N 37°49' E 009°15'8 9.2
2014-Sep-07 06:14N 37°49' E 009°05'8 9.3
2014-Sep-07 05:25N 37°48' E 008°56'  
Track history (hours):
 
Tides and Currents Weather Stations Pressure Air Temp Water Temp Dewpoint Dewpoint Depression Visibility Wind Speed Wind Dir Waves Ship Positions

Doce Orion

Last reported at 2014-Sep-15 09:11 UTC. Time now 2014-Oct-25 13:21 UTC.
Position N 31°22' E 032°20'.
Warning: this ship's position is 40 days out of date.

Type: Cargo ship. MMSI: 710034000.

Date/timePositionNaut miles runAvg speedWind from/ knotsBaromVisibWave heightAir tempDewpointWater temp
2014-Sep-15 09:11N 31°22' E 032°20'0 0.0
2014-Sep-15 08:30N 31°22' E 032°20'66 5.8
2014-Sep-14 21:05N 31°59' E 031°16'  
2014-Sep-12 11:32N 34°29' E 021°31'297 7.6
2014-Sep-10 20:32N 35°45' E 015°40'22 9.2
2014-Sep-10 18:12N 35°51' E 015°15'6 9.9
2014-Sep-10 17:33N 35°53' E 015°07'9 8.8
2014-Sep-10 16:33N 35°54' E 014°56'7 6.7
2014-Sep-10 15:33N 35°54' E 014°48'1 0.9
2014-Sep-10 14:32N 35°54' E 014°47'0 0.0
2014-Sep-10 13:32N 35°54' E 014°47'0 0.0
2014-Sep-10 12:29N 35°54' E 014°47'0 0.1
2014-Sep-10 11:31N 35°54' E 014°47'0 0.2
2014-Sep-10 10:32N 35°54' E 014°47'0 0.1
2014-Sep-10 09:32N 35°53' E 014°47'0 0.0
2014-Sep-10 07:17N 35°53' E 014°47'0 0.0
2014-Sep-10 06:32N 35°53' E 014°47'0 0.0
2014-Sep-10 04:05N 35°53' E 014°47'0 0.0
2014-Sep-10 03:05N 35°53' E 014°47'0 0.0
2014-Sep-10 02:23N 35°53' E 014°47'0 0.0
2014-Sep-10 01:23N 35°53' E 014°47'0 0.0
2014-Sep-10 00:29N 35°53' E 014°47'0 0.0
2014-Sep-09 23:29N 35°53' E 014°47'0 0.0
2014-Sep-09 22:17N 35°53' E 014°47'0 0.0
2014-Sep-09 21:20N 35°53' E 014°47'0 0.0
2014-Sep-09 20:33N 35°53' E 014°47'0 0.0
2014-Sep-09 19:33N 35°53' E 014°47'0 0.0
2014-Sep-09 18:33N 35°53' E 014°47'0 0.0
2014-Sep-09 17:33N 35°53' E 014°47'0 0.1
2014-Sep-09 16:24N 35°53' E 014°47'0 0.0
2014-Sep-09 15:33N 35°53' E 014°47'0 0.0
2014-Sep-09 14:33N 35°53' E 014°47'0 0.0
2014-Sep-09 13:24N 35°53' E 014°47'0 0.0
2014-Sep-09 12:30N 35°53' E 014°47'0 0.0
2014-Sep-09 11:33N 35°53' E 014°47'0 0.0
2014-Sep-09 10:14N 35°53' E 014°47'0 0.0
2014-Sep-09 09:31N 35°53' E 014°47'0 0.0
2014-Sep-09 06:15N 35°53' E 014°47'0 0.0
2014-Sep-09 05:10N 35°54' E 014°47'0 0.0
2014-Sep-09 04:24N 35°54' E 014°47'0 0.0
2014-Sep-09 03:33N 35°54' E 014°47'0 0.0
2014-Sep-09 02:29N 35°54' E 014°47'0 0.0
2014-Sep-09 01:33N 35°54' E 014°47'0 0.0
2014-Sep-09 00:29N 35°54' E 014°47'0 0.1
2014-Sep-08 23:33N 35°53' E 014°47'0 0.0
2014-Sep-08 22:24N 35°53' E 014°47'0 0.0
2014-Sep-08 21:30N 35°53' E 014°47'0 0.0
2014-Sep-08 19:32N 35°53' E 014°47'0 0.0
2014-Sep-08 18:22N 35°53' E 014°47'0 0.0
2014-Sep-08 17:33N 35°53' E 014°47'1 0.6
2014-Sep-08 16:33N 35°53' E 014°47'3 3.1
2014-Sep-08 15:33N 35°56' E 014°45'6 6.1
2014-Sep-08 14:33N 35°58' E 014°38'9 9.3
2014-Sep-08 13:33N 36°04' E 014°29'9 9.4
2014-Sep-08 12:33N 36°09' E 014°20'11 9.4
2014-Sep-08 11:26N 36°15' E 014°09'8 9.3
2014-Sep-08 10:33N 36°19' E 014°00'12 9.9
2014-Sep-08 09:18N 36°26' E 013°47'12 9.9
2014-Sep-08 08:08N 36°32' E 013°35'6 9.6
2014-Sep-08 07:33N 36°35' E 013°29'9 9.3
2014-Sep-08 06:33N 36°40' E 013°19'10 9.2
2014-Sep-08 05:26N 36°45' E 013°08'8 9.1
2014-Sep-08 04:33N 36°50' E 012°60'188 8.8
2014-Sep-07 07:04N 37°49' E 009°15'8 9.2
2014-Sep-07 06:14N 37°49' E 009°05'8 9.3
2014-Sep-07 05:25N 37°48' E 008°56'  

Dump ship's entire track history